createdAt,value
2019-05-15T00:02:29.716Z,16.19
2019-05-15T00:05:01.781Z,16.18
2019-05-15T00:07:33.149Z,16.13
2019-05-15T00:10:08.546Z,16.08
2019-05-15T00:12:40.992Z,16.03
2019-05-15T00:15:12.646Z,15.96
2019-05-15T00:17:44.450Z,15.90
2019-05-15T00:20:16.023Z,15.88
2019-05-15T00:22:48.447Z,15.88
2019-05-15T00:25:22.695Z,15.88
2019-05-15T00:27:58.152Z,15.86
2019-05-15T00:30:29.622Z,15.84
2019-05-15T00:33:00.973Z,15.79
2019-05-15T00:35:32.728Z,15.74
2019-05-15T00:38:04.493Z,15.66
2019-05-15T00:40:39.203Z,15.66
2019-05-15T00:43:09.537Z,15.61
2019-05-15T00:45:44.331Z,15.56
2019-05-15T00:48:14.566Z,15.55
2019-05-15T00:50:48.396Z,15.54
2019-05-15T00:53:19.823Z,15.53
2019-05-15T00:55:51.480Z,15.50
2019-05-15T00:58:23.266Z,15.48
2019-05-15T01:00:55.096Z,15.46
2019-05-15T01:03:27.875Z,15.43
2019-05-15T01:05:59.934Z,15.39
2019-05-15T01:08:32.110Z,15.37
2019-05-15T01:11:03.659Z,15.31
2019-05-15T01:13:35.130Z,15.29
2019-05-15T01:16:09.250Z,15.26
2019-05-15T01:18:41.082Z,15.27
2019-05-15T01:21:12.895Z,15.21
2019-05-15T01:23:44.812Z,15.18
2019-05-15T01:26:18.863Z,15.16
2019-05-15T01:28:50.200Z,15.15
2019-05-15T01:31:22.232Z,15.15
2019-05-15T01:33:53.730Z,15.11
2019-05-15T01:36:25.677Z,15.11
2019-05-15T01:38:58.476Z,15.09
2019-05-15T01:41:30.094Z,15.08
2019-05-15T01:44:02.552Z,15.11
2019-05-15T01:46:34.208Z,15.14
2019-05-15T01:49:08.046Z,15.16
2019-05-15T01:51:39.426Z,15.14
2019-05-15T01:54:10.942Z,15.12
2019-05-15T01:56:42.857Z,15.10
2019-05-15T01:59:14.655Z,15.10
2019-05-15T02:01:48.488Z,15.11
2019-05-15T02:04:20.823Z,15.11
2019-05-15T02:06:52.600Z,15.10
2019-05-15T02:09:24.074Z,15.11
2019-05-15T02:11:57.981Z,15.15
2019-05-15T02:14:28.971Z,15.16
2019-05-15T02:17:00.931Z,15.14
2019-05-15T02:19:32.788Z,15.16
2019-05-15T02:22:04.344Z,15.21
2019-05-15T02:24:38.856Z,15.25
2019-05-15T02:27:09.321Z,15.32
2019-05-15T02:29:40.540Z,15.40
2019-05-15T02:32:12.422Z,15.49
2019-05-15T02:34:43.856Z,15.55
2019-05-15T02:37:15.608Z,15.63
2019-05-15T02:39:49.585Z,15.68
2019-05-15T02:42:20.987Z,15.77
2019-05-15T02:44:52.331Z,15.84
2019-05-15T02:47:24.413Z,15.91
2019-05-15T02:49:59.107Z,15.96
2019-05-15T02:52:29.867Z,15.96
2019-05-15T02:55:01.403Z,15.95
2019-05-15T02:57:33.205Z,15.93
2019-05-15T03:00:10.362Z,15.96
2019-05-15T03:02:41.600Z,15.98
2019-05-15T03:05:13.334Z,15.99
2019-05-15T03:07:45.270Z,16.00
2019-05-15T03:10:19.968Z,16.03
2019-05-15T03:12:50.353Z,16.07
2019-05-15T03:15:21.884Z,16.13
2019-05-15T03:17:53.461Z,16.33
2019-05-15T03:20:24.904Z,16.93
2019-05-15T03:22:59.525Z,17.78
2019-05-15T03:25:29.899Z,18.40
2019-05-15T03:28:01.429Z,18.38
2019-05-15T03:31:04.747Z,18.43
2019-05-15T03:33:11.560Z,19.71
2019-05-15T03:35:42.973Z,21.32
2019-05-15T03:38:12.552Z,22.33
2019-05-15T03:40:43.886Z,22.60
2019-05-15T03:43:18.409Z,22.61
2019-05-15T03:45:49.423Z,22.39
2019-05-15T03:48:21.209Z,22.27
2019-05-15T03:50:52.556Z,21.85
2019-05-15T03:53:23.974Z,21.50
2019-05-15T03:55:58.212Z,21.24
2019-05-15T03:58:29.046Z,21.24
2019-05-15T04:01:01.650Z,20.96
2019-05-15T04:03:33.403Z,20.67
2019-05-15T04:06:05.025Z,20.21
2019-05-15T04:08:39.111Z,20.02
2019-05-15T04:11:09.831Z,19.78
2019-05-15T04:13:41.553Z,19.67
2019-05-15T04:16:12.945Z,19.66
2019-05-15T04:18:44.495Z,19.78
2019-05-15T04:21:15.957Z,19.99
2019-05-15T04:23:49.962Z,20.03
2019-05-15T04:26:20.981Z,20.16
2019-05-15T04:28:52.739Z,20.38
2019-05-15T04:31:35.585Z,20.73
2019-05-15T04:34:01.136Z,21.14
2019-05-15T04:36:32.508Z,21.39
2019-05-15T04:39:06.004Z,21.45
2019-05-15T04:41:39.348Z,21.64
2019-05-15T04:44:10.847Z,21.75
2019-05-15T04:46:43.578Z,21.72
2019-05-15T04:49:15.287Z,21.80
2019-05-15T04:51:49.820Z,21.87
2019-05-15T04:54:22.589Z,22.00
2019-05-15T04:56:54.041Z,22.07
2019-05-15T04:59:25.545Z,22.38
2019-05-15T05:02:16.341Z,23.18
2019-05-15T05:04:30.374Z,24.11
2019-05-15T05:07:04.112Z,25.12
2019-05-15T05:09:38.764Z,26.56
2019-05-15T05:12:08.739Z,27.59
2019-05-15T05:14:40.279Z,28.05
2019-05-15T05:17:12.651Z,28.55
2019-05-15T05:19:44.084Z,29.05
2019-05-15T05:22:15.414Z,29.82
2019-05-15T05:24:47.828Z,30.22
2019-05-15T05:27:19.340Z,30.54
2019-05-15T05:29:50.895Z,30.80
2019-05-15T05:32:32.010Z,31.02
2019-05-15T05:34:55.477Z,31.71
2019-05-15T05:37:27.955Z,32.54
2019-05-15T05:39:59.711Z,32.93
2019-05-15T05:42:31.123Z,33.87
2019-05-15T05:45:02.670Z,33.87
2019-05-15T05:47:34.037Z,33.86
2019-05-15T05:50:07.991Z,33.15
2019-05-15T05:52:39.432Z,33.87
2019-05-15T05:55:11.238Z,33.71
2019-05-15T05:57:42.601Z,32.96
2019-05-15T06:00:18.063Z,32.09
2019-05-15T06:02:52.148Z,31.33
2019-05-15T06:05:21.999Z,31.20
2019-05-15T06:07:53.602Z,31.38
2019-05-15T06:10:25.061Z,33.40
2019-05-15T06:12:58.708Z,33.35
2019-05-15T06:15:29.915Z,33.94
2019-05-15T06:18:02.278Z,35.77
2019-05-15T06:20:33.765Z,36.58
2019-05-15T06:23:05.177Z,37.28
2019-05-15T06:25:38.928Z,36.24
2019-05-15T06:28:11.902Z,37.34
2019-05-15T06:30:43.320Z,37.97
2019-05-15T06:33:14.640Z,38.53
2019-05-15T06:35:48.563Z,39.11
2019-05-15T06:38:19.773Z,39.61
2019-05-15T06:40:51.560Z,37.78
2019-05-15T06:43:23.046Z,38.51
2019-05-15T06:45:54.527Z,38.57
2019-05-15T06:48:25.970Z,40.23
2019-05-15T06:50:58.022Z,39.57
2019-05-15T06:53:29.566Z,38.18
2019-05-15T06:56:03.423Z,39.21
2019-05-15T06:58:34.941Z,38.39
2019-05-15T07:01:08.848Z,40.04
2019-05-15T07:03:39.923Z,39.45
2019-05-15T07:06:11.644Z,40.18
2019-05-15T07:08:43.217Z,39.30
2019-05-15T07:11:14.706Z,38.10
2019-05-15T07:13:45.992Z,39.02
2019-05-15T07:16:18.218Z,39.19
2019-05-15T07:18:49.608Z,37.85
2019-05-15T07:21:21.163Z,36.46
2019-05-15T07:23:52.486Z,37.05
2019-05-15T07:26:23.973Z,37.96
2019-05-15T07:28:56.281Z,36.19
2019-05-15T07:31:29.861Z,37.70
2019-05-15T07:34:01.138Z,38.19
2019-05-15T07:36:32.541Z,38.95
2019-05-15T07:39:08.601Z,39.69
2019-05-15T07:41:40.053Z,40.16
2019-05-15T07:44:11.255Z,40.06
2019-05-15T07:46:42.624Z,39.90
2019-05-15T07:49:13.909Z,39.95
2019-05-15T07:51:45.326Z,41.78
2019-05-15T07:54:18.218Z,41.48
2019-05-15T07:56:50.093Z,39.36
2019-05-15T07:59:21.410Z,37.32
2019-05-15T08:01:52.909Z,35.45
2019-05-15T08:04:29.449Z,34.13
2019-05-15T08:06:59.162Z,33.79
2019-05-15T08:09:30.924Z,33.48
2019-05-15T08:12:03.477Z,33.24
2019-05-15T08:14:34.783Z,32.63
2019-05-15T08:17:08.513Z,32.22
2019-05-15T08:19:39.117Z,31.96
2019-05-15T08:22:10.575Z,31.76
2019-05-15T08:24:41.944Z,31.70
2019-05-15T08:27:13.537Z,31.80
2019-05-15T08:29:44.969Z,31.95
2019-05-15T08:32:18.809Z,32.19
2019-05-15T08:34:49.952Z,32.29
2019-05-15T08:37:21.443Z,32.50
2019-05-15T08:39:52.791Z,32.97
2019-05-15T08:42:24.373Z,34.31
2019-05-15T08:44:55.681Z,35.41
2019-05-15T08:47:29.662Z,36.02
2019-05-15T08:50:00.451Z,36.79
2019-05-15T08:52:31.835Z,37.38
2019-05-15T08:55:03.239Z,38.32
2019-05-15T08:57:34.671Z,39.16
2019-05-15T09:00:09.681Z,39.82
2019-05-15T09:02:43.658Z,40.28
2019-05-15T09:05:14.981Z,40.31
2019-05-15T09:07:48.620Z,40.97
2019-05-15T09:10:19.799Z,41.20
2019-05-15T09:12:54.239Z,41.39
2019-05-15T09:15:25.511Z,41.48
2019-05-15T09:18:11.668Z,42.34
2019-05-15T09:20:29.017Z,41.73
2019-05-15T09:23:00.476Z,41.21
2019-05-15T09:25:31.670Z,40.30
2019-05-15T09:28:03.144Z,40.38
2019-05-15T09:30:34.427Z,40.25
2019-05-15T09:33:08.082Z,40.70
2019-05-15T09:35:39.453Z,41.12
2019-05-15T09:38:11.092Z,40.09
2019-05-15T09:40:46.460Z,39.60
2019-05-15T09:43:15.384Z,40.21
2019-05-15T09:45:49.360Z,41.56
2019-05-15T09:48:20.393Z,42.48
2019-05-15T09:50:52.047Z,41.76
2019-05-15T09:53:23.142Z,42.49
2019-05-15T09:55:54.520Z,40.25
2019-05-15T09:58:25.802Z,41.07
2019-05-15T10:00:56.975Z,40.57
2019-05-15T10:03:28.384Z,40.57
2019-05-15T10:05:59.598Z,40.74
2019-05-15T10:08:31.296Z,40.70
2019-05-15T10:11:02.819Z,41.69
2019-05-15T10:13:34.230Z,41.09
2019-05-15T10:16:08.217Z,40.34
2019-05-15T10:18:39.191Z,40.04
2019-05-15T10:21:12.750Z,38.90
2019-05-15T10:23:44.399Z,37.99
2019-05-15T10:26:15.729Z,37.45
2019-05-15T10:28:49.295Z,36.30
2019-05-15T10:31:20.076Z,35.59
2019-05-15T10:33:51.605Z,34.70
2019-05-15T10:36:22.804Z,33.93
2019-05-15T10:38:54.345Z,33.58
2019-05-15T10:41:28.000Z,33.10
2019-05-15T10:44:00.409Z,33.11
2019-05-15T10:46:32.989Z,32.87
2019-05-15T10:49:04.528Z,32.57
2019-05-15T10:51:35.818Z,32.73
2019-05-15T10:54:08.495Z,33.10
2019-05-15T10:56:39.960Z,33.17
2019-05-15T10:59:11.342Z,33.32
2019-05-15T11:01:43.714Z,33.47
2019-05-15T11:04:15.116Z,33.79
2019-05-15T11:06:48.882Z,33.83
2019-05-15T11:09:20.087Z,33.61
2019-05-15T11:11:51.798Z,33.53
2019-05-15T11:14:24.361Z,33.21
2019-05-15T11:16:55.795Z,33.35
2019-05-15T11:19:35.517Z,33.60
2019-05-15T11:22:00.228Z,33.73
2019-05-15T11:24:32.384Z,33.65
2019-05-15T11:27:03.773Z,33.65
2019-05-15T11:29:38.165Z,33.47
2019-05-15T11:32:09.698Z,33.26
2019-05-15T11:34:42.418Z,32.87
2019-05-15T11:37:13.754Z,32.71
2019-05-15T11:39:47.056Z,32.47
2019-05-15T11:42:20.322Z,32.25
2019-05-15T11:44:53.379Z,31.99
2019-05-15T11:47:24.790Z,31.81
2019-05-15T11:49:58.310Z,31.73
2019-05-15T11:52:29.651Z,31.66
2019-05-15T11:55:01.339Z,31.67
2019-05-15T11:57:42.452Z,31.17
2019-05-15T12:00:14.960Z,31.17
2019-05-15T12:02:40.760Z,30.97
2019-05-15T12:05:11.932Z,31.08
2019-05-15T12:07:47.660Z,31.17
2019-05-15T12:10:18.473Z,31.29
2019-05-15T12:12:50.173Z,31.30
2019-05-15T12:15:21.884Z,31.35
2019-05-15T12:17:53.238Z,31.41
2019-05-15T12:20:28.371Z,31.24
2019-05-15T12:22:59.417Z,30.75
2019-05-15T12:25:31.875Z,30.92
2019-05-15T12:28:03.553Z,30.74
2019-05-15T12:30:34.981Z,30.68
2019-05-15T12:33:09.023Z,30.52
2019-05-15T12:35:40.270Z,30.52
2019-05-15T12:38:12.040Z,30.52
2019-05-15T13:01:16.999Z,29.92
2019-05-15T13:03:41.962Z,29.72
2019-05-15T13:06:15.369Z,29.81
2019-05-15T13:08:48.910Z,29.85
2019-05-15T13:11:19.919Z,29.93
2019-05-15T13:13:51.602Z,30.19
2019-05-15T13:16:23.058Z,30.45
2019-05-15T13:18:54.347Z,30.40
2019-05-15T13:21:26.077Z,30.46
2019-05-15T13:23:58.654Z,30.34
2019-05-15T13:26:30.553Z,30.48
2019-05-15T13:29:02.063Z,30.42
2019-05-15T13:31:33.827Z,30.34
2019-05-15T13:34:05.139Z,30.41
2019-05-15T13:36:39.013Z,30.57
2019-05-15T13:39:09.762Z,30.82
2019-05-15T13:41:41.330Z,30.81
2019-05-15T13:44:14.223Z,30.94
2019-05-15T13:46:47.160Z,30.87
2019-05-15T13:49:19.092Z,30.37
2019-05-15T13:51:50.687Z,30.19
2019-05-15T13:54:22.322Z,29.99
2019-05-15T13:56:53.867Z,29.78
2019-05-15T13:59:28.643Z,29.50
2019-05-15T14:02:01.761Z,29.30
2019-05-15T14:04:33.877Z,29.14
2019-05-15T14:07:08.378Z,29.06
2019-05-15T14:09:48.151Z,28.87
2019-05-15T14:12:21.407Z,28.61
2019-05-15T14:14:58.093Z,28.57
2019-05-15T14:17:31.069Z,28.63
2019-05-15T14:23:13.889Z,28.53
2019-05-15T14:25:58.894Z,28.33
2019-05-15T14:28:48.112Z,28.12
2019-05-15T14:31:43.219Z,28.15
2019-05-15T14:34:54.476Z,28.11
2019-05-15T14:38:02.658Z,28.04
2019-05-15T14:40:34.514Z,28.00
2019-05-15T14:43:14.910Z,27.82
2019-05-15T14:46:08.114Z,27.72
2019-05-15T14:48:50.455Z,27.68
2019-05-15T14:51:28.511Z,27.60
2019-05-15T14:54:14.551Z,27.50
2019-05-15T14:56:58.664Z,27.47
2019-05-15T14:59:40.305Z,27.37
2019-05-15T15:02:26.008Z,27.32
2019-05-15T15:05:26.373Z,27.31
2019-05-15T15:08:17.138Z,27.27
2019-05-15T15:10:59.852Z,27.18
2019-05-15T15:13:57.862Z,27.10
2019-05-15T15:16:42.716Z,27.06
2019-05-15T15:19:35.035Z,27.06
2019-05-15T15:22:19.537Z,26.96
2019-05-15T15:24:53.019Z,26.88
2019-05-15T15:27:38.600Z,26.76
2019-05-15T15:30:29.350Z,26.65
2019-05-15T15:33:14.105Z,26.56
2019-05-15T15:35:59.351Z,26.50
2019-05-15T15:38:43.707Z,26.47
2019-05-15T15:41:19.613Z,26.42
2019-05-15T15:43:58.668Z,26.35
2019-05-15T15:46:39.579Z,26.31
2019-05-15T15:49:23.651Z,26.21
2019-05-15T15:52:02.238Z,26.15
2019-05-15T15:58:03.877Z,26.00
2019-05-15T16:00:50.166Z,25.84
2019-05-15T16:03:38.381Z,25.75
2019-05-15T16:09:31.999Z,25.66
2019-05-15T16:12:39.138Z,25.53
2019-05-15T16:15:24.846Z,25.45
2019-05-15T16:18:08.995Z,25.37
2019-05-15T16:20:52.007Z,25.30
2019-05-15T16:23:59.035Z,25.18
2019-05-15T16:26:49.662Z,25.08
2019-05-15T16:29:28.845Z,25.00
2019-05-15T16:32:09.792Z,24.90
2019-05-15T16:35:09.328Z,24.81
2019-05-15T16:37:49.750Z,24.65
2019-05-15T16:40:45.334Z,24.50
2019-05-15T16:43:43.807Z,24.35
2019-05-15T16:46:28.225Z,24.26
2019-05-15T16:49:10.574Z,24.23
2019-05-15T16:52:04.487Z,24.15
2019-05-15T16:54:43.016Z,24.03
2019-05-15T16:57:42.829Z,23.93
2019-05-15T17:00:34.188Z,23.81
2019-05-15T17:03:14.940Z,23.69
2019-05-15T17:05:51.398Z,23.57
2019-05-15T17:08:41.589Z,23.48
2019-05-15T17:11:28.894Z,23.34
2019-05-15T17:14:19.680Z,23.24
2019-05-15T17:17:20.583Z,23.13
2019-05-15T17:20:04.685Z,23.04
2019-05-15T17:22:49.198Z,22.95
2019-05-15T17:25:38.223Z,22.88
2019-05-15T17:28:18.523Z,22.78
2019-05-15T17:31:03.281Z,22.66
2019-05-15T17:33:40.017Z,22.58
2019-05-15T17:36:38.098Z,22.52
2019-05-15T17:39:33.821Z,22.40
2019-05-15T17:42:00.656Z,22.32
2019-05-15T17:44:43.520Z,22.24
2019-05-15T17:47:28.591Z,22.14
2019-05-15T17:50:28.342Z,22.06
2019-05-15T17:53:07.936Z,21.98
2019-05-15T17:56:04.688Z,21.90
2019-05-15T18:02:04.681Z,21.74
2019-05-15T18:04:51.947Z,21.66
2019-05-15T18:07:48.655Z,21.63
2019-05-15T18:10:27.927Z,21.57
2019-05-15T18:13:04.415Z,21.50
2019-05-15T18:15:53.933Z,21.45
2019-05-15T18:18:47.919Z,21.33
2019-05-15T18:21:22.293Z,21.41
2019-05-15T18:23:53.926Z,21.39
2019-05-15T18:26:25.441Z,21.36
2019-05-15T18:28:58.310Z,21.30
2019-05-15T18:31:30.585Z,21.26
2019-05-15T18:34:02.347Z,21.19
2019-05-15T18:36:33.885Z,21.10
2019-05-15T18:39:08.458Z,21.01
2019-05-15T18:41:40.131Z,20.92
2019-05-15T18:44:13.615Z,20.87
2019-05-15T18:46:49.896Z,20.83
2019-05-15T18:49:22.075Z,20.82
2019-05-15T18:51:53.535Z,20.78
2019-05-15T18:54:25.079Z,20.71
2019-05-15T18:56:58.473Z,20.66
2019-05-15T18:59:31.679Z,20.63
2019-05-15T19:02:03.323Z,20.58
2019-05-15T19:04:35.108Z,20.51
2019-05-15T19:07:08.707Z,20.43
2019-05-15T19:09:39.823Z,20.36
2019-05-15T19:12:11.762Z,20.37
2019-05-15T19:14:43.497Z,20.36
2019-05-15T19:17:15.146Z,20.30
2019-05-15T19:19:48.185Z,20.22
2019-05-15T19:22:20.153Z,20.16
2019-05-15T19:24:51.892Z,20.10
2019-05-15T19:27:23.663Z,20.01
2019-05-15T19:29:59.037Z,19.99
2019-05-15T19:32:31.547Z,20.01
2019-05-15T19:35:03.998Z,20.00
2019-05-15T19:37:37.788Z,19.98
2019-05-15T19:40:09.677Z,19.96
2019-05-15T19:42:41.234Z,19.93
2019-05-15T19:45:13.188Z,19.92
2019-05-15T19:47:44.975Z,19.84
2019-05-15T19:50:18.116Z,19.81
2019-05-15T19:52:50.965Z,19.82
2019-05-15T19:55:22.567Z,19.82
2019-05-15T19:57:55.379Z,19.77
2019-05-15T20:00:28.509Z,19.71
2019-05-15T20:03:00.039Z,19.71
2019-05-15T20:05:31.907Z,19.67
2019-05-15T20:08:03.661Z,19.64
2019-05-15T20:10:35.658Z,19.61
2019-05-15T20:13:07.598Z,19.57
2019-05-15T20:15:39.558Z,19.53
2019-05-15T20:18:11.725Z,19.51
2019-05-15T20:20:44.086Z,19.49
2019-05-15T20:23:18.259Z,19.44
2019-05-15T20:25:49.899Z,19.18
2019-05-15T20:28:22.082Z,19.30
2019-05-15T20:30:53.750Z,19.27
2019-05-15T20:33:25.360Z,19.23
2019-05-15T20:35:58.843Z,19.18
2019-05-15T20:38:31.532Z,19.10
2019-05-15T20:41:03.372Z,19.07
2019-05-15T20:43:34.818Z,19.06
2019-05-15T20:46:08.456Z,19.04
2019-05-15T20:48:40.183Z,19.03
2019-05-15T20:51:11.736Z,19.01
2019-05-15T20:53:43.397Z,18.95
2019-05-15T20:56:15.178Z,18.91
2019-05-15T20:58:47.907Z,18.89
2019-05-15T21:01:20.817Z,18.90
2019-05-15T21:03:52.572Z,18.83
2019-05-15T21:06:24.431Z,18.77
2019-05-15T21:08:57.862Z,18.71
2019-05-15T21:11:29.691Z,18.71
2019-05-15T21:14:01.440Z,18.69
2019-05-15T21:16:33.219Z,18.67
2019-05-15T21:19:04.545Z,18.68
2019-05-15T21:21:38.432Z,18.68
2019-05-15T21:24:10.416Z,18.62
2019-05-15T21:26:41.984Z,18.58
2019-05-15T21:29:13.729Z,18.55
2019-05-15T21:31:45.587Z,18.50
2019-05-15T21:34:32.261Z,18.48
2019-05-15T21:36:52.163Z,18.49
2019-05-15T21:39:23.831Z,18.48
2019-05-15T21:41:58.153Z,18.49
2019-05-15T21:44:29.380Z,18.43
2019-05-15T21:47:01.967Z,18.35
2019-05-15T21:49:33.634Z,18.25
2019-05-15T21:52:05.379Z,18.24
2019-05-15T21:54:38.535Z,18.23
2019-05-15T21:57:29.111Z,18.20
2019-05-15T21:59:43.322Z,18.21
2019-05-15T22:02:14.866Z,18.20
2019-05-15T22:04:54.865Z,18.18
2019-05-15T22:07:19.819Z,18.18
2019-05-15T22:09:51.269Z,18.16
2019-05-15T22:12:23.037Z,18.18
2019-05-15T22:14:55.403Z,18.04
2019-05-15T22:17:29.351Z,18.03
2019-05-15T22:20:00.246Z,17.95
2019-05-15T22:22:32.056Z,17.91
2019-05-15T22:25:04.273Z,17.95
2019-05-15T22:27:37.790Z,17.94
2019-05-15T22:30:08.922Z,17.91
2019-05-15T22:32:41.716Z,17.85
2019-05-15T22:35:14.162Z,17.80
2019-05-15T22:37:45.877Z,17.78
2019-05-15T22:40:18.685Z,17.79
2019-05-15T22:42:50.463Z,17.78
2019-05-15T22:45:22.328Z,17.75
2019-05-15T22:47:54.183Z,17.75
2019-05-15T22:50:27.854Z,17.65
2019-05-15T22:52:59.130Z,17.61
2019-05-15T22:55:30.578Z,17.55
2019-05-15T22:58:02.412Z,17.51
2019-05-15T23:00:33.998Z,17.44
2019-05-15T23:03:08.237Z,17.43
2019-05-15T23:05:39.253Z,17.36
2019-05-15T23:08:11.211Z,17.36
2019-05-15T23:10:42.558Z,17.40
2019-05-15T23:13:14.322Z,17.42
2019-05-15T23:15:47.718Z,17.41
2019-05-15T23:18:19.374Z,17.39
2019-05-15T23:20:51.236Z,17.37
2019-05-15T23:23:24.640Z,17.37
2019-05-15T23:25:57.816Z,17.35
2019-05-15T23:28:29.369Z,17.30
2019-05-15T23:31:01.026Z,17.30
2019-05-15T23:33:32.882Z,17.19
2019-05-15T23:36:04.232Z,17.17
2019-05-15T23:38:35.892Z,17.18
2019-05-15T23:41:08.220Z,17.17
2019-05-15T23:43:39.816Z,17.15
2019-05-15T23:46:11.168Z,17.13
2019-05-15T23:48:42.825Z,17.14
2019-05-15T23:51:14.169Z,16.97
2019-05-15T23:53:48.177Z,17.16
2019-05-15T23:56:19.392Z,17.12
2019-05-15T23:58:51.978Z,17.09
